Time;durP1;ratioP1;P1;durP2;ratioP2;P2;SDS_P1;SDS_P2;PMS_P1;PMS_P2;Temp;Humidity;BMP_temperature;BMP_pressure;BME280_temperature;BME280_humidity;BME280_pressure;Samples;Min_cycle;Max_cycle;Signal;HPM_P1;HPM_P2
2023/09/01 00:00:47;;;;;;;5.40;1.98;;;12.20;99.90;;;;;;5066876;28;20045;-67
2023/09/01 00:03:17;;;;;;;12.10;2.08;;;12.20;99.90;;;;;;5063252;28;20074;-67
2023/09/01 00:05:43;;;;;;;5.35;2.17;;;12.20;99.90;;;;;;5050459;28;20037;-67
2023/09/01 00:08:09;;;;;;;9.73;2.40;;;12.20;99.90;;;;;;5066289;28;20435;-67
2023/09/01 00:10:39;;;;;;;6.07;2.10;;;12.10;99.90;;;;;;5062145;28;20107;-67
2023/09/01 00:13:05;;;;;;;10.02;2.53;;;12.10;99.90;;;;;;5063881;28;20404;-67
2023/09/01 00:15:31;;;;;;;6.25;2.03;;;12.10;99.90;;;;;;5067962;28;20059;-67
2023/09/01 00:17:57;;;;;;;5.32;1.92;;;12.10;99.90;;;;;;5065841;28;20409;-67
2023/09/01 00:20:23;;;;;;;6.70;2.22;;;12.10;99.90;;;;;;5049148;28;20044;-68
2023/09/01 00:22:49;;;;;;;6.07;2.03;;;12.10;99.90;;;;;;5067048;28;20044;-67
2023/09/01 00:25:15;;;;;;;4.53;2.00;;;12.00;99.90;;;;;;5066744;28;20075;-67
2023/09/01 00:27:41;;;;;;;6.25;2.10;;;12.00;99.90;;;;;;5064557;28;20214;-67
2023/09/01 00:30:08;;;;;;;6.03;2.40;;;12.00;99.90;;;;;;5048707;28;20084;-67
2023/09/01 00:32:33;;;;;;;4.53;1.90;;;12.00;99.90;;;;;;5043924;28;20049;-69
2023/09/01 00:35:00;;;;;;;6.85;2.17;;;11.90;99.90;;;;;;5065672;28;20048;-67
2023/09/01 00:37:25;;;;;;;6.65;2.10;;;12.00;99.90;;;;;;5058563;28;20553;-67
2023/09/01 00:39:51;;;;;;;5.25;2.05;;;11.90;99.90;;;;;;5067066;28;20033;-67
2023/09/01 00:42:17;;;;;;;6.35;1.75;;;11.90;99.90;;;;;;5049061;28;20052;-67
2023/09/01 00:44:45;;;;;;;5.75;2.20;;;11.90;99.90;;;;;;5065184;28;20128;-67
2023/09/01 00:47:13;;;;;;;5.43;1.90;;;11.90;99.90;;;;;;5067243;28;20444;-68
2023/09/01 00:49:40;;;;;;;5.43;1.70;;;11.90;99.90;;;;;;5067064;28;20468;-67
2023/09/01 00:52:06;;;;;;;6.90;2.00;;;11.80;99.90;;;;;;5048622;28;20513;-67
2023/09/01 00:54:33;;;;;;;6.22;2.30;;;11.80;99.90;;;;;;5065383;28;20418;-67
2023/09/01 00:56:59;;;;;;;7.25;2.13;;;11.70;99.90;;;;;;5064059;28;20051;-67
2023/09/01 00:59:25;;;;;;;7.75;1.95;;;11.80;99.90;;;;;;5048563;28;20037;-66
2023/09/01 01:01:52;;;;;;;7.05;2.10;;;11.70;99.90;;;;;;5064297;28;20044;-67
2023/09/01 01:04:20;;;;;;;4.65;1.90;;;11.70;99.90;;;;;;5058415;28;20754;-68
2023/09/01 01:07:09;;;;;;;5.93;2.38;;;12.00;99.90;;;;;;5054374;28;20052;-67
2023/09/01 01:09:55;;;;;;;5.80;2.30;;;11.70;99.90;;;;;;5047989;28;20146;-67
2023/09/01 01:12:48;;;;;;;6.63;2.40;;;11.60;99.90;;;;;;5065092;28;20045;-68
2023/09/01 01:15:15;;;;;;;7.53;2.58;;;11.60;99.90;;;;;;5064038;28;20436;-67
2023/09/01 01:17:44;;;;;;;5.13;2.42;;;11.60;99.90;;;;;;5047656;28;20045;-67
2023/09/01 01:20:16;;;;;;;5.88;2.25;;;11.60;99.90;;;;;;5062855;28;20040;-67
2023/09/01 01:22:48;;;;;;;6.13;2.90;;;11.60;99.90;;;;;;5062089;28;20043;-66
2023/09/01 01:25:13;;;;;;;;;;;11.60;99.90;;;;;;5062117;28;20056;-66
2023/09/01 01:27:44;;;;;;;5.25;2.42;;;11.60;99.90;;;;;;5064584;28;19946;-67
2023/09/01 01:30:14;;;;;;;9.43;2.57;;;11.60;99.90;;;;;;5064861;28;20056;-66
2023/09/01 01:32:40;;;;;;;5.90;2.45;;;11.60;99.90;;;;;;5066048;28;20045;-66
2023/09/01 01:35:34;;;;;;;8.35;2.72;;;11.60;99.90;;;;;;5064491;28;20083;-66
2023/09/01 01:38:20;;;;;;;6.32;2.60;;;11.60;99.90;;;;;;5060667;28;20052;-67
2023/09/01 01:40:49;;;;;;;9.02;2.53;;;11.50;99.90;;;;;;5069727;28;20062;-67
2023/09/01 01:43:22;;;;;;;7.07;2.53;;;11.50;99.90;;;;;;5067942;28;20059;-66
2023/09/01 01:45:48;;;;;;;7.68;2.65;;;11.50;99.90;;;;;;5068358;28;20131;-67
2023/09/01 01:48:14;;;;;;;8.98;2.42;;;11.50;99.90;;;;;;5065675;28;20143;-66
2023/09/01 01:50:41;;;;;;;7.50;2.75;;;11.40;99.90;;;;;;5059981;28;20131;-67
2023/09/01 01:53:07;;;;;;;6.30;2.30;;;11.40;99.90;;;;;;5051872;28;20047;-67
2023/09/01 01:55:33;;;;;;;8.82;2.78;;;11.40;99.90;;;;;;5049820;28;20083;-67
2023/09/01 01:57:59;;;;;;;6.43;3.22;;;11.40;99.90;;;;;;5066930;28;20040;-67
2023/09/01 02:00:27;;;;;;;6.43;2.83;;;11.40;99.90;;;;;;5048222;28;20431;-68
2023/09/01 02:02:53;;;;;;;6.82;2.83;;;11.30;99.90;;;;;;5063939;28;20052;-66
2023/09/01 02:05:19;;;;;;;9.35;2.78;;;11.30;99.90;;;;;;5068179;28;20052;-67
2023/09/01 02:07:45;;;;;;;6.43;2.92;;;11.30;99.90;;;;;;5068311;28;20052;-67
2023/09/01 02:10:11;;;;;;;11.45;3.30;;;11.30;99.90;;;;;;5068179;28;20082;-67
2023/09/01 02:12:36;;;;;;;8.10;3.22;;;11.20;99.90;;;;;;5068444;28;20067;-67
2023/09/01 02:15:08;;;;;;;6.60;2.80;;;11.20;99.90;;;;;;5068651;28;20835;-67
2023/09/01 02:17:37;;;;;;;7.03;3.20;;;11.20;99.90;;;;;;5067712;28;20072;-67
2023/09/01 02:20:19;;;;;;;6.63;3.10;;;11.20;99.90;;;;;;5068152;28;20121;-67
2023/09/01 02:22:47;;;;;;;7.85;3.17;;;11.20;99.90;;;;;;5066914;28;20551;-67
2023/09/01 02:25:13;;;;;;;6.10;3.10;;;11.20;99.90;;;;;;5066676;28;20056;-67
2023/09/01 02:27:40;;;;;;;7.15;3.10;;;11.20;99.90;;;;;;5062554;28;20040;-66
2023/09/01 02:30:10;;;;;;;7.18;3.20;;;11.20;99.90;;;;;;5067265;28;20060;-67
2023/09/01 02:32:37;;;;;;;6.63;2.90;;;11.20;99.90;;;;;;5067417;28;20072;-67
2023/09/01 02:35:06;;;;;;;8.40;3.30;;;11.10;99.90;;;;;;5062837;28;20044;-66
2023/09/01 02:37:38;;;;;;;12.07;3.28;;;11.10;99.90;;;;;;5050089;28;20033;-75
2023/09/01 02:40:10;;;;;;;8.95;3.55;;;11.10;99.90;;;;;;5063505;28;20066;-76
2023/09/01 02:42:40;;;;;;;7.40;3.33;;;11.10;99.90;;;;;;5046301;28;20049;-75
2023/09/01 02:45:07;;;;;;;8.32;3.30;;;11.10;99.90;;;;;;5063481;28;20557;-75
2023/09/01 02:47:34;;;;;;;7.63;3.60;;;11.10;99.90;;;;;;5063089;28;20048;-74
2023/09/01 02:50:02;;;;;;;6.15;3.22;;;11.10;99.90;;;;;;5065622;28;20041;-75
2023/09/01 02:52:27;;;;;;;7.60;2.90;;;11.10;99.90;;;;;;5048682;28;20048;-74
2023/09/01 02:54:55;;;;;;;8.52;3.70;;;11.10;99.90;;;;;;5065440;28;20789;-75
2023/09/01 02:57:21;;;;;;;5.90;2.72;;;11.00;99.90;;;;;;5066089;28;20041;-74
2023/09/01 02:59:47;;;;;;;9.98;3.28;;;11.00;99.90;;;;;;5045750;28;20037;-74
2023/09/01 03:02:15;;;;;;;8.05;2.80;;;11.00;99.90;;;;;;5062337;28;20090;-75
2023/09/01 03:04:41;;;;;;;8.10;3.63;;;11.00;99.90;;;;;;5062083;28;20048;-75
2023/09/01 03:07:07;;;;;;;7.00;3.00;;;10.90;99.90;;;;;;5063995;28;20052;-75
2023/09/01 03:09:32;;;;;;;8.85;3.50;;;10.90;99.90;;;;;;5048169;28;20525;-74
2023/09/01 03:11:58;;;;;;;8.05;3.42;;;10.90;99.90;;;;;;5058986;28;20040;-75
2023/09/01 03:14:24;;;;;;;6.57;3.05;;;10.90;99.90;;;;;;5062227;28;20131;-75
2023/09/01 03:16:50;;;;;;;9.20;3.33;;;10.80;99.90;;;;;;5064491;28;20044;-75
2023/09/01 03:19:16;;;;;;;8.35;3.03;;;10.80;99.90;;;;;;5058786;28;20036;-76
2023/09/01 03:21:42;;;;;;;6.75;3.20;;;10.80;99.90;;;;;;5064772;28;20056;-76
2023/09/01 03:24:08;;;;;;;6.40;3.00;;;10.80;99.90;;;;;;5045132;28;20044;-76
2023/09/01 03:26:34;;;;;;;8.50;3.25;;;10.70;99.90;;;;;;5063661;28;20507;-75
2023/09/01 03:29:02;;;;;;;9.23;3.58;;;10.80;99.90;;;;;;5063293;28;20199;-76
2023/09/01 03:31:28;;;;;;;9.60;3.22;;;10.70;99.90;;;;;;5063134;28;20685;-76
2023/09/01 03:33:54;;;;;;;8.70;3.22;;;10.70;99.90;;;;;;5063966;28;20041;-76
2023/09/01 03:36:20;;;;;;;9.38;3.17;;;10.60;99.90;;;;;;5057010;28;20045;-76
2023/09/01 03:38:48;;;;;;;7.68;3.10;;;10.60;99.90;;;;;;5063731;28;20052;-74
2023/09/01 03:41:13;;;;;;;7.88;3.05;;;10.60;99.90;;;;;;5059638;28;20037;-75
2023/09/01 03:43:39;;;;;;;9.27;3.10;;;10.40;99.90;;;;;;5061431;28;20562;-74
2023/09/01 03:46:05;;;;;;;8.05;3.13;;;10.60;99.90;;;;;;5043703;28;20044;-75
2023/09/01 03:48:32;;;;;;;7.22;3.60;;;10.60;99.90;;;;;;5064746;28;20060;-75
2023/09/01 03:51:05;;;;;;;6.72;2.92;;;10.50;99.90;;;;;;5047304;28;20127;-74
2023/09/01 03:53:31;;;;;;;7.20;3.03;;;10.50;99.90;;;;;;5061415;28;20850;-75
2023/09/01 03:56:05;;;;;;;8.00;3.75;;;10.50;99.90;;;;;;5064624;28;20101;-74
2023/09/01 03:58:31;;;;;;;6.82;2.92;;;10.50;99.90;;;;;;5059301;28;20079;-74
2023/09/01 04:00:56;;;;;;;7.22;3.17;;;10.50;99.90;;;;;;5058868;28;20564;-74
2023/09/01 04:03:23;;;;;;;7.53;2.95;;;10.40;99.90;;;;;;5046030;28;20052;-75
2023/09/01 04:05:49;;;;;;;7.25;2.83;;;10.40;99.90;;;;;;5045661;28;20084;-76
2023/09/01 04:08:15;;;;;;;7.28;3.22;;;10.40;99.90;;;;;;5062026;28;20041;-75
2023/09/01 04:10:40;;;;;;;5.95;2.75;;;10.40;99.90;;;;;;5060100;28;20043;-75
2023/09/01 04:13:06;;;;;;;6.10;2.83;;;10.40;99.90;;;;;;5042563;28;20055;-74
2023/09/01 04:15:32;;;;;;;6.30;2.75;;;10.40;99.90;;;;;;5042157;28;20046;-75
2023/09/01 04:17:57;;;;;;;9.00;3.30;;;10.40;99.90;;;;;;5063114;28;20089;-74
2023/09/01 04:20:23;;;;;;;7.13;3.25;;;10.40;99.90;;;;;;5062304;28;20044;-75
2023/09/01 04:22:49;;;;;;;7.57;3.00;;;10.40;99.90;;;;;;5061044;28;20040;-77
2023/09/01 04:25:15;;;;;;;5.40;2.72;;;10.30;99.90;;;;;;5056086;28;20076;-75
2023/09/01 04:27:41;;;;;;;6.15;2.83;;;10.30;99.90;;;;;;5057576;28;20134;-75
2023/09/01 04:30:07;;;;;;;5.30;2.50;;;10.30;99.90;;;;;;5056105;28;20072;-75
2023/09/01 04:32:33;;;;;;;6.88;2.60;;;10.30;99.90;;;;;;5052093;28;20040;-74
2023/09/01 04:34:58;;;;;;;6.70;3.00;;;10.30;99.90;;;;;;5058174;28;20444;-75
2023/09/01 04:37:25;;;;;;;20.73;3.33;;;10.20;99.90;;;;;;5040134;28;20052;-75
2023/09/01 04:39:51;;;;;;;8.75;2.88;;;10.20;99.90;;;;;;5058400;28;20052;-74
2023/09/01 04:42:16;;;;;;;5.65;2.60;;;10.20;99.90;;;;;;5037296;28;20124;-74
2023/09/01 04:44:45;;;;;;;6.35;2.75;;;10.20;99.90;;;;;;5039733;28;20105;-74
2023/09/01 04:47:10;;;;;;;5.20;2.90;;;10.20;99.90;;;;;;5059733;28;20032;-74
2023/09/01 04:49:36;;;;;;;6.35;2.90;;;10.10;99.90;;;;;;5059173;28;20096;-74
2023/09/01 04:52:02;;;;;;;6.35;2.72;;;10.20;99.90;;;;;;5056344;28;20409;-74
2023/09/01 04:54:28;;;;;;;5.95;2.83;;;10.10;99.90;;;;;;5061249;28;20413;-74
2023/09/01 04:56:55;;;;;;;6.97;2.63;;;10.10;99.90;;;;;;5062231;28;20052;-67
2023/09/01 04:59:21;;;;;;;8.48;2.88;;;10.10;99.90;;;;;;5062391;28;20131;-67
2023/09/01 05:01:47;;;;;;;5.32;2.65;;;10.10;99.90;;;;;;5062425;28;20101;-67
2023/09/01 05:04:15;;;;;;;6.70;3.00;;;10.10;99.90;;;;;;5071751;28;20051;-66
2023/09/01 05:06:41;;;;;;;5.45;2.78;;;10.10;99.90;;;;;;5063746;28;20115;-67
2023/09/01 05:09:07;;;;;;;6.32;2.63;;;10.10;99.90;;;;;;5046665;28;20649;-67
2023/09/01 05:11:33;;;;;;;6.15;2.47;;;10.10;99.90;;;;;;5063183;28;20086;-67
2023/09/01 05:13:58;;;;;;;5.63;2.63;;;10.10;99.90;;;;;;5064441;28;20048;-67
2023/09/01 05:16:24;;;;;;;5.53;2.47;;;10.30;99.90;;;;;;5048202;28;20044;-67
2023/09/01 05:18:50;;;;;;;6.60;2.47;;;10.20;99.90;;;;;;5054901;28;20041;-67
2023/09/01 05:21:15;;;;;;;5.60;2.55;;;10.10;99.90;;;;;;5060736;28;20586;-66
2023/09/01 05:23:41;;;;;;;5.70;2.63;;;10.10;99.90;;;;;;5063692;28;20047;-66
2023/09/01 05:26:07;;;;;;;5.78;2.50;;;10.10;99.90;;;;;;5064331;28;20790;-66
2023/09/01 05:28:32;;;;;;;5.47;2.25;;;10.10;99.90;;;;;;5065026;28;20172;-66
2023/09/01 05:30:58;;;;;;;7.15;2.65;;;10.10;99.90;;;;;;5046670;28;20715;-67
2023/09/01 05:33:24;;;;;;;5.72;2.53;;;10.10;99.90;;;;;;5062100;28;20067;-66
2023/09/01 05:35:50;;;;;;;7.22;2.60;;;10.10;99.90;;;;;;5065371;28;20409;-66
2023/09/01 05:38:15;;;;;;;8.55;2.72;;;10.10;99.90;;;;;;5063964;28;20094;-66
2023/09/01 05:40:41;;;;;;;7.20;2.47;;;10.10;99.90;;;;;;5064073;28;20028;-66
2023/09/01 05:43:07;;;;;;;7.22;2.95;;;10.10;99.90;;;;;;5063100;28;20143;-67
2023/09/01 05:45:32;;;;;;;6.90;3.05;;;10.20;99.90;;;;;;5060524;28;20049;-67
2023/09/01 05:47:58;;;;;;;7.60;2.97;;;10.20;99.90;;;;;;5061942;28;20040;-67
2023/09/01 05:50:24;;;;;;;6.47;2.53;;;10.20;99.90;;;;;;5045278;28;20097;-67
2023/09/01 05:52:50;;;;;;;8.80;3.00;;;10.30;99.90;;;;;;5061046;28;20060;-67
2023/09/01 05:55:16;;;;;;;8.23;3.60;;;10.30;99.90;;;;;;5069253;28;20111;-67
2023/09/01 05:57:45;;;;;;;7.07;2.90;;;10.40;99.90;;;;;;5064753;28;20464;-67
2023/09/01 06:00:11;;;;;;;9.18;2.97;;;10.40;99.90;;;;;;5063720;28;20047;-67
2023/09/01 06:02:37;;;;;;;6.15;3.10;;;10.50;99.90;;;;;;5062647;28;20393;-67
2023/09/01 06:05:05;;;;;;;8.60;3.50;;;10.50;99.90;;;;;;5056951;28;20041;-66
2023/09/01 06:07:30;;;;;;;9.02;2.78;;;10.60;99.90;;;;;;5064190;28;20091;-67
2023/09/01 06:09:56;;;;;;;6.75;3.03;;;10.60;99.90;;;;;;5063818;28;20417;-67
2023/09/01 06:12:22;;;;;;;8.70;3.67;;;10.60;99.90;;;;;;5066157;28;20080;-66
2023/09/01 06:14:48;;;;;;;5.07;2.60;;;10.70;99.90;;;;;;5063011;28;20051;-67
2023/09/01 06:17:13;;;;;;;6.65;2.72;;;10.80;99.90;;;;;;5061871;28;20028;-67
2023/09/01 06:19:39;;;;;;;6.90;3.03;;;10.80;99.90;;;;;;5042842;28;20088;-66
2023/09/01 06:22:05;;;;;;;6.97;3.30;;;10.80;99.90;;;;;;5063707;28;20493;-66
2023/09/01 06:24:30;;;;;;;10.38;3.20;;;10.90;99.90;;;;;;5061940;28;20082;-66
2023/09/01 06:26:56;;;;;;;8.18;3.28;;;11.00;99.90;;;;;;5066611;28;20040;-66
2023/09/01 06:29:22;;;;;;;7.97;3.08;;;11.00;99.90;;;;;;5047919;28;20106;-67
2023/09/01 06:31:47;;;;;;;6.38;3.10;;;11.10;99.90;;;;;;5068730;28;20040;-67
2023/09/01 06:34:13;;;;;;;7.88;3.10;;;11.20;99.90;;;;;;5066119;28;20173;-67
2023/09/01 06:36:39;;;;;;;7.65;2.95;;;11.20;99.90;;;;;;5065082;28;20151;-67
2023/09/01 06:39:04;;;;;;;7.63;2.65;;;11.30;99.90;;;;;;5068415;28;20295;-66
2023/09/01 06:41:31;;;;;;;8.77;2.90;;;11.40;99.90;;;;;;5066676;28;20036;-66
2023/09/01 06:43:57;;;;;;;9.77;2.60;;;11.50;99.90;;;;;;5066437;28;20080;-67
2023/09/01 06:46:22;;;;;;;9.13;2.72;;;11.50;99.90;;;;;;5074000;28;20060;-67
2023/09/01 06:48:48;;;;;;;7.68;2.50;;;11.70;99.90;;;;;;5065297;28;20036;-67
2023/09/01 06:51:14;;;;;;;10.38;2.65;;;11.70;99.90;;;;;;5065813;28;20068;-67
2023/09/01 06:53:40;;;;;;;9.65;2.50;;;11.70;99.90;;;;;;5066215;28;20531;-66
2023/09/01 06:56:05;;;;;;;8.15;2.60;;;11.80;99.90;;;;;;5047405;28;20052;-67
2023/09/01 06:58:31;;;;;;;10.68;2.60;;;11.90;99.90;;;;;;5068351;28;20045;-67
2023/09/01 07:00:58;;;;;;;6.75;2.55;;;12.00;99.90;;;;;;5065214;28;20075;-67
2023/09/01 07:03:24;;;;;;;6.15;2.30;;;12.10;99.90;;;;;;5065349;28;20048;-67
2023/09/01 07:05:56;;;;;;;6.50;2.28;;;12.10;99.90;;;;;;5061680;28;20047;-67
2023/09/01 07:08:21;;;;;;;8.85;2.78;;;12.10;99.90;;;;;;5055542;28;20056;-66
2023/09/01 07:10:47;;;;;;;10.35;2.72;;;12.20;99.90;;;;;;5068649;28;20037;-67
2023/09/01 07:13:13;;;;;;;9.32;2.50;;;12.20;99.90;;;;;;5066625;28;20109;-74
2023/09/01 07:15:38;;;;;;;7.63;2.42;;;12.30;99.90;;;;;;5066269;28;20451;-74
2023/09/01 07:18:04;;;;;;;10.98;2.60;;;12.40;99.90;;;;;;5064965;28;20650;-74
2023/09/01 07:20:30;;;;;;;8.85;2.35;;;12.40;99.90;;;;;;5058343;28;20041;-74
2023/09/01 07:22:56;;;;;;;6.63;2.10;;;12.60;99.90;;;;;;5059552;28;20036;-74
2023/09/01 07:25:21;;;;;;;7.30;2.30;;;12.70;99.90;;;;;;5062365;28;20029;-75
2023/09/01 07:27:47;;;;;;;9.38;2.00;;;12.80;99.90;;;;;;5045704;28;20413;-74
2023/09/01 07:30:13;;;;;;;9.00;2.45;;;13.00;99.90;;;;;;5065777;28;20044;-75
2023/09/01 07:32:40;;;;;;;4.35;1.63;;;13.20;99.90;;;;;;5061768;28;20463;-75
2023/09/01 07:35:06;;;;;;;6.10;1.70;;;13.30;99.90;;;;;;5066390;28;20779;-74
2023/09/01 07:37:32;;;;;;;7.97;1.70;;;13.50;99.90;;;;;;5072527;28;22269;-75
2023/09/01 07:39:58;;;;;;;5.63;1.90;;;13.60;99.90;;;;;;5067011;28;20075;-75
2023/09/01 07:42:23;;;;;;;7.65;1.45;;;13.70;99.90;;;;;;5053380;28;20052;-75
2023/09/01 07:44:49;;;;;;;5.95;1.30;;;13.70;99.90;;;;;;5050990;28;20048;-74
2023/09/01 07:47:15;;;;;;;5.20;1.52;;;13.70;99.90;;;;;;5050635;28;20105;-75
2023/09/01 07:49:40;;;;;;;8.70;1.55;;;13.80;99.90;;;;;;5050179;28;20056;-74
2023/09/01 07:52:06;;;;;;;5.85;1.40;;;13.90;99.90;;;;;;5050353;28;20044;-67
2023/09/01 07:54:32;;;;;;;5.95;1.40;;;13.90;99.90;;;;;;5053953;28;20053;-67
2023/09/01 07:56:58;;;;;;;7.82;1.77;;;13.90;99.90;;;;;;5051339;28;20156;-67
2023/09/01 07:59:24;;;;;;;6.70;1.60;;;14.00;99.90;;;;;;5051418;28;20105;-67
2023/09/01 08:01:52;;;;;;;5.10;1.33;;;14.00;99.90;;;;;;5032579;28;20119;-68
2023/09/01 08:04:18;;;;;;;9.95;1.20;;;14.10;99.90;;;;;;5050902;28;20045;-67
2023/09/01 08:06:43;;;;;;;6.10;1.60;;;14.10;99.90;;;;;;5053479;28;20774;-68
2023/09/01 08:09:09;;;;;;;4.75;1.30;;;14.20;99.90;;;;;;5038278;28;20045;-68
2023/09/01 08:11:35;;;;;;;2.88;1.00;;;14.30;99.90;;;;;;5052462;28;20048;-67
2023/09/01 08:14:01;;;;;;;5.97;1.50;;;14.40;99.90;;;;;;5031986;28;21137;-68
2023/09/01 08:16:27;;;;;;;4.50;1.30;;;14.40;99.90;;;;;;5035701;28;20044;-68
2023/09/01 08:18:52;;;;;;;3.72;1.20;;;14.50;99.90;;;;;;5057662;28;20097;-68
2023/09/01 08:21:18;;;;;;;4.30;1.20;;;14.60;99.90;;;;;;5052674;28;20048;-67
2023/09/01 08:23:46;;;;;;;6.38;1.50;;;14.70;99.90;;;;;;5059365;28;20045;-67
2023/09/01 08:26:12;;;;;;;4.95;1.35;;;14.70;99.90;;;;;;5059641;28;20044;-67
2023/09/01 08:28:38;;;;;;;3.78;1.40;;;14.70;99.90;;;;;;5058804;28;20041;-68
2023/09/01 08:31:05;;;;;;;5.75;1.58;;;14.70;99.90;;;;;;5058017;28;20109;-67
2023/09/01 08:33:31;;;;;;;5.18;1.30;;;14.80;99.90;;;;;;5051670;28;20048;-67
2023/09/01 08:36:00;;;;;;;4.88;1.40;;;14.80;99.90;;;;;;5058438;28;20155;-67
2023/09/01 08:38:26;;;;;;;3.80;1.17;;;14.90;99.90;;;;;;5041119;28;20055;-67
2023/09/01 08:41:02;;;;;;;6.15;1.33;;;15.00;99.90;;;;;;5037546;28;20501;-68
2023/09/01 08:43:33;;;;;;;5.00;1.30;;;15.00;99.90;;;;;;5052504;28;20075;-68
2023/09/01 08:46:01;;;;;;;6.43;1.80;;;15.10;99.90;;;;;;5058953;28;20036;-67
2023/09/01 08:48:27;;;;;;;6.00;1.33;;;15.10;99.90;;;;;;5058537;28;20055;-67
2023/09/01 08:50:55;;;;;;;7.28;1.80;;;15.20;99.90;;;;;;5060753;28;20044;-68
2023/09/01 08:53:21;;;;;;;5.88;1.67;;;15.20;99.90;;;;;;5060227;28;20059;-67
2023/09/01 08:55:48;;;;;;;6.45;1.83;;;15.20;99.90;;;;;;5058870;28;20044;-68
2023/09/01 08:58:14;;;;;;;9.25;1.60;;;15.30;99.90;;;;;;5060255;28;20420;-67
2023/09/01 09:00:40;;;;;;;5.75;1.75;;;15.30;99.90;;;;;;5056923;28;20037;-68
2023/09/01 09:03:06;;;;;;;7.35;1.50;;;15.40;99.90;;;;;;5041494;28;20119;-68
2023/09/01 09:05:33;;;;;;;6.57;1.50;;;15.40;99.90;;;;;;5058012;28;20497;-68
2023/09/01 09:08:01;;;;;;;5.50;1.48;;;15.40;99.90;;;;;;5057205;28;20123;-68
2023/09/01 09:10:46;;;;;;;5.43;1.40;;;15.50;99.90;;;;;;5052925;28;20048;-68
2023/09/01 09:13:25;;;;;;;4.57;1.45;;;15.50;99.90;;;;;;5056943;28;20393;-68
2023/09/01 09:16:13;;;;;;;4.30;1.48;;;15.50;99.90;;;;;;5060357;28;20048;-68
2023/09/01 09:18:43;;;;;;;5.90;1.40;;;15.50;99.90;;;;;;5061389;28;20626;-68
2023/09/01 09:21:29;;;;;;;6.20;1.25;;;15.50;99.90;;;;;;5061983;28;20097;-68
2023/09/01 09:23:57;;;;;;;5.43;1.33;;;15.60;99.90;;;;;;5060785;28;20127;-68
2023/09/01 09:26:26;;;;;;;6.55;1.38;;;15.60;99.90;;;;;;5062482;28;20052;-69
2023/09/01 09:28:53;;;;;;;7.90;1.45;;;15.60;99.90;;;;;;5056332;28;20036;-69
2023/09/01 09:31:28;;;;;;;8.73;1.60;;;15.60;99.90;;;;;;5055709;28;20044;-68
2023/09/01 09:33:54;;;;;;;6.82;1.88;;;15.70;99.90;;;;;;5054194;28;20040;-68
2023/09/01 09:36:33;;;;;;;3.70;1.42;;;15.70;99.90;;;;;;5052945;28;20493;-68
2023/09/01 09:38:59;;;;;;;6.38;1.95;;;15.80;99.90;;;;;;5052078;28;20072;-68
2023/09/01 09:41:25;;;;;;;6.57;1.63;;;15.80;99.90;;;;;;5054630;28;20076;-68
2023/09/01 09:43:50;;;;;;;6.45;1.60;;;15.90;99.90;;;;;;5056315;28;20040;-68
2023/09/01 09:46:19;;;;;;;7.00;1.30;;;15.90;99.90;;;;;;5057625;28;20529;-68
2023/09/01 09:48:45;;;;;;;4.20;1.40;;;15.90;99.90;;;;;;5043092;28;20044;-68
2023/09/01 09:51:15;;;;;;;6.10;1.40;;;16.00;99.90;;;;;;5051849;28;20062;-69
2023/09/01 09:53:46;;;;;;;4.07;1.33;;;16.00;99.90;;;;;;5043608;28;20725;-69
2023/09/01 09:56:35;;;;;;;8.25;2.05;;;16.00;99.90;;;;;;5032291;28;20477;-71
2023/09/01 09:59:05;;;;;;;5.68;1.70;;;16.00;99.90;;;;;;5058667;28;20055;-69
2023/09/01 10:01:34;;;;;;;4.85;1.50;;;16.00;99.90;;;;;;5059308;28;20044;-69
2023/09/01 10:04:04;;;;;;;3.65;1.10;;;16.00;99.90;;;;;;5061713;28;20040;-69
2023/09/01 10:06:34;;;;;;;3.70;1.17;;;16.10;99.90;;;;;;5057923;28;20126;-69
2023/09/01 10:09:05;;;;;;;3.60;1.23;;;16.10;99.90;;;;;;5065542;28;20376;-69
2023/09/01 10:11:31;;;;;;;3.58;1.30;;;16.10;99.90;;;;;;5061622;28;20107;-69
2023/09/01 10:13:59;;;;;;;4.32;1.20;;;16.10;99.90;;;;;;5060553;28;20045;-68
2023/09/01 10:16:25;;;;;;;5.45;1.58;;;16.10;99.90;;;;;;5060740;28;21739;-69
2023/09/01 10:18:55;;;;;;;5.80;1.10;;;16.20;99.90;;;;;;5063441;28;20045;-69
2023/09/01 10:21:21;;;;;;;4.20;1.20;;;16.20;99.90;;;;;;5043422;28;20040;-69
2023/09/01 10:23:47;;;;;;;4.28;1.08;;;16.20;99.90;;;;;;5064175;28;20040;-69
2023/09/01 10:26:15;;;;;;;3.90;1.35;;;16.30;99.90;;;;;;5045253;28;20048;-69
2023/09/01 10:29:04;;;;;;;6.75;1.73;;;16.30;99.90;;;;;;5057014;28;20053;-69
2023/09/01 10:31:35;;;;;;;4.78;1.20;;;16.40;99.90;;;;;;5061388;28;20049;-69
2023/09/01 10:34:15;;;;;;;3.70;1.17;;;16.40;99.90;;;;;;5038987;28;20055;-69
2023/09/01 10:36:45;;;;;;;6.40;1.25;;;16.50;99.90;;;;;;5054881;28;20036;-68
2023/09/01 10:39:16;;;;;;;5.32;1.23;;;16.50;99.90;;;;;;5052899;28;20079;-68
2023/09/01 10:41:47;;;;;;;5.53;1.40;;;16.60;99.90;;;;;;5051708;28;20051;-69
2023/09/01 10:44:13;;;;;;;4.60;1.00;;;16.60;99.90;;;;;;5033638;28;20040;-69
2023/09/01 10:46:39;;;;;;;5.10;1.20;;;16.60;99.90;;;;;;5047066;28;20060;-67
2023/09/01 10:49:07;;;;;;;4.90;1.02;;;16.70;99.90;;;;;;5052585;28;20032;-68
2023/09/01 10:51:34;;;;;;;3.95;1.27;;;16.80;99.90;;;;;;5044180;28;20356;-67
2023/09/01 10:54:21;;;;;;;5.40;1.08;;;16.90;99.90;;;;;;5068418;28;20132;-68
2023/09/01 10:57:02;;;;;;;4.28;1.00;;;16.90;99.90;;;;;;5034222;28;20131;-69
2023/09/01 10:59:35;;;;;;;4.38;1.40;;;16.90;99.90;;;;;;5034673;28;20143;-69
2023/09/01 11:02:20;;;;;;;4.25;1.13;;;17.00;99.90;;;;;;5050997;28;20040;-69
2023/09/01 11:04:47;;;;;;;4.47;1.10;;;17.10;99.90;;;;;;5054847;28;20036;-69
2023/09/01 11:07:13;;;;;;;5.30;1.10;;;17.20;99.90;;;;;;5051549;28;20756;-69
2023/09/01 11:09:39;;;;;;;6.78;1.48;;;17.30;99.90;;;;;;5052220;28;20547;-69
2023/09/01 11:12:07;;;;;;;4.22;1.20;;;17.40;99.90;;;;;;5034728;28;20072;-69
2023/09/01 11:14:34;;;;;;;5.90;1.20;;;17.50;99.90;;;;;;5050393;28;20502;-69
2023/09/01 11:17:01;;;;;;;5.20;1.00;;;17.50;99.90;;;;;;5048794;28;20048;-69
2023/09/01 11:19:27;;;;;;;3.72;1.10;;;17.60;99.90;;;;;;5053636;28;20491;-69
2023/09/01 11:21:53;;;;;;;7.13;1.08;;;17.60;99.90;;;;;;5045318;28;20063;-69
2023/09/01 11:24:22;;;;;;;7.38;1.20;;;17.60;99.90;;;;;;5031712;28;20584;-70
2023/09/01 11:26:49;;;;;;;6.10;1.10;;;17.50;99.90;;;;;;5051695;28;20052;-69
2023/09/01 11:29:15;;;;;;;4.47;1.08;;;17.50;99.90;;;;;;5048661;28;20033;-69
2023/09/01 11:31:42;;;;;;;5.70;1.55;;;17.70;99.90;;;;;;5031229;28;22256;-69
2023/09/01 11:34:09;;;;;;;3.45;1.00;;;17.70;99.90;;;;;;5050022;28;20131;-70
2023/09/01 11:36:49;;;;;;;3.90;0.98;;;17.80;99.90;;;;;;5047775;28;20121;-69
2023/09/01 11:39:15;;;;;;;4.40;1.35;;;17.80;99.90;;;;;;5047532;28;20583;-69
2023/09/01 11:41:42;;;;;;;7.78;1.25;;;17.90;99.90;;;;;;5049046;28;20037;-69
2023/09/01 11:44:08;;;;;;;5.65;1.15;;;17.90;99.90;;;;;;5050669;28;20132;-69
2023/09/01 11:46:37;;;;;;;6.90;1.50;;;17.90;99.90;;;;;;5051679;28;20052;-69
2023/09/01 11:49:05;;;;;;;6.07;1.42;;;18.00;99.90;;;;;;5031923;28;20767;-69
2023/09/01 11:51:36;;;;;;;5.10;1.50;;;18.00;99.90;;;;;;5055214;28;20048;-69
2023/09/01 11:54:03;;;;;;;6.63;1.55;;;18.10;99.90;;;;;;5059594;28;20056;-69
2023/09/01 11:56:29;;;;;;;4.03;1.23;;;18.20;99.90;;;;;;5059375;28;20048;-76
2023/09/01 11:58:57;;;;;;;6.05;2.00;;;18.20;99.90;;;;;;5043835;28;20084;-76
2023/09/01 12:01:24;;;;;;;5.45;1.88;;;18.30;99.90;;;;;;5060602;28;20680;-75
2023/09/01 12:04:11;;;;;;;5.40;1.40;;;18.40;99.90;;;;;;5064324;28;20111;-76
2023/09/01 12:06:44;;;;;;;6.85;1.50;;;18.40;99.90;;;;;;5063505;28;20056;-75
2023/09/01 12:09:15;;;;;;;5.68;1.92;;;18.40;99.90;;;;;;5064003;28;21482;-75
2023/09/01 12:12:02;;;;;;;7.88;2.83;;;18.40;99.90;;;;;;5063660;28;20059;-76
2023/09/01 12:14:30;;;;;;;8.10;2.63;;;18.40;99.90;;;;;;5041323;28;20048;-76
2023/09/01 12:16:57;;;;;;;6.95;2.28;;;18.40;99.90;;;;;;5039297;28;20493;-76
2023/09/01 12:19:27;;;;;;;7.05;2.00;;;18.40;99.90;;;;;;5057892;28;20459;-76
2023/09/01 12:21:57;;;;;;;8.50;2.30;;;18.40;99.90;;;;;;5037775;28;20079;-76
2023/09/01 12:24:23;;;;;;;8.52;2.25;;;18.50;99.90;;;;;;5055649;28;20048;-76
2023/09/01 12:26:49;;;;;;;10.82;2.97;;;18.50;99.90;;;;;;5053980;28;20509;-75
2023/09/01 12:29:15;;;;;;;13.55;2.67;;;18.50;99.90;;;;;;5041152;28;20047;-75
2023/09/01 12:31:44;;;;;;;10.45;2.72;;;18.60;99.90;;;;;;5056608;28;20670;-75
2023/09/01 12:34:10;;;;;;;9.98;2.58;;;18.60;99.90;;;;;;5037173;28;20055;-76
2023/09/01 12:36:35;;;;;;;7.38;2.28;;;18.60;99.90;;;;;;5058243;28;20655;-76
2023/09/01 12:39:01;;;;;;;8.25;2.50;;;18.70;99.90;;;;;;5054088;28;20051;-75
2023/09/01 12:41:27;;;;;;;8.65;2.60;;;18.70;99.90;;;;;;5055268;28;20036;-76
2023/09/01 12:43:52;;;;;;;11.85;2.72;;;18.70;99.90;;;;;;5057554;28;20526;-75
2023/09/01 12:46:18;;;;;;;8.98;2.63;;;18.80;99.90;;;;;;5059299;28;20132;-75
2023/09/01 12:48:44;;;;;;;9.25;2.05;;;18.80;99.90;;;;;;5053617;28;20778;-75